Terminal Aerodrome Forecast
Issued by NWS Tulsa, OK

Home | Current Version | Previous Version | Text Only | Print | Product List | Glossary On
Versions: 1 2 3 4 5 6 7 8 9 10 11 12 13
796
FTUS44 KTSA 120524
TAFTUL
TAF
KTUL 120524Z 1206/1306 36003KT P6SM SCT250
     FM120800 25002KT P6SM SCT250
     FM121500 34014G21KT P6SM SCT120 BKN200
     FM121800 36013G20KT P6SM FEW020 SCT120 BKN200
     FM122300 02011G17KT P6SM FEW250
     FM130100 02010KT P6SM BKN200=

USA.gov is the U.S. government's official web portal to all federal, state and local government web resources and services.